Time;durP1;ratioP1;P1;durP2;ratioP2;P2;SDS_P1;SDS_P2;PMS_P1;PMS_P2;Temp;Humidity;BMP_temperature;BMP_pressure;BME280_temperature;BME280_humidity;BME280_pressure;Samples;Min_cycle;Max_cycle;Signal;HPM_P1;HPM_P2
2022/03/28 00:00:16;;;;;;;15.88;3.62;;;;;;;1.61;42.54;148072.98;1753906;80;21281;-61
2022/03/28 00:02:44;;;;;;;7.35;2.83;;;;;;;1.59;42.96;148067.83;1754436;81;20909;-63
2022/03/28 00:05:13;;;;;;;10.93;3.35;;;;;;;1.61;43.45;148074.23;1753601;81;21064;-60
2022/03/28 00:07:42;;;;;;;10.72;3.60;;;;;;;1.64;43.87;148081.97;1754300;81;20993;-61
2022/03/28 00:10:12;;;;;;;10.58;3.83;;;;;;;1.67;44.36;148088.44;1754258;81;21020;-63
2022/03/28 00:12:41;;;;;;;10.95;3.40;;;;;;;1.67;44.70;148089.75;1754291;81;20997;-60
2022/03/28 00:15:10;;;;;;;10.82;2.62;;;;;;;1.67;45.03;148089.75;1753540;81;21123;-63
2022/03/28 00:17:39;;;;;;;10.95;2.60;;;;;;;1.69;45.15;148094.89;1754327;81;21328;-62
2022/03/28 00:20:11;;;;;;;5.03;2.70;;;;;;;1.69;45.26;148094.89;1753984;81;21446;-62
2022/03/28 00:22:39;;;;;;;9.90;2.98;;;;;;;1.71;45.44;148100.05;1730936;81;20996;-61
2022/03/28 00:25:09;;;;;;;5.47;2.40;;;;;;;1.77;45.45;148112.92;1753998;81;21988;-63
2022/03/28 00:27:36;;;;;;;8.50;2.77;;;;;;;1.78;45.33;148116.81;1754185;80;21084;-61
2022/03/28 00:30:08;;;;;;;10.38;2.90;;;;;;;1.79;45.16;148118.06;1811788;79;20936;-61
2022/03/28 00:32:36;;;;;;;13.15;3.05;;;;;;;1.81;45.01;148123.22;1814703;78;21508;-60
2022/03/28 00:35:05;;;;;;;8.95;2.80;;;;;;;1.81;44.83;148123.22;1814162;78;20992;-60
2022/03/28 00:37:33;;;;;;;9.75;3.50;;;;;;;1.80;44.74;148121.97;1814689;78;21145;-61
2022/03/28 00:40:00;;;;;;;13.25;4.78;;;;;;;1.78;44.74;148115.50;1814855;79;20947;-61
2022/03/28 00:42:28;;;;;;;8.45;3.47;;;;;;;1.77;44.87;148112.92;1814926;77;21000;-62
2022/03/28 00:44:55;;;;;;;10.13;3.65;;;;;;;1.70;45.22;148097.47;1814631;78;21059;-62
2022/03/28 00:47:22;;;;;;;12.63;3.27;;;;;;;1.66;45.57;148087.17;1814661;78;21019;-62
2022/03/28 00:49:51;;;;;;;10.05;2.98;;;;;;;1.62;45.79;148076.81;1814183;79;21410;-61
2022/03/28 00:52:18;;;;;;;9.43;2.90;;;;;;;1.60;45.95;148071.66;1813604;79;21013;-63
2022/03/28 00:54:47;;;;;;;9.05;2.85;;;;;;;1.59;46.13;148069.09;1813527;79;21004;-60
2022/03/28 00:57:14;;;;;;;9.65;3.02;;;;;;;1.62;46.18;148076.81;1813389;79;21063;-61
2022/03/28 00:59:43;;;;;;;10.65;3.33;;;;;;;1.64;46.19;148081.97;1814460;79;21370;-60
2022/03/28 01:02:10;;;;;;;15.93;3.55;;;;;;;1.66;46.25;148087.17;1813793;79;21211;-60
2022/03/28 01:04:38;;;;;;;12.30;3.80;;;;;;;1.68;46.32;148092.31;1813955;79;21027;-62
2022/03/28 01:07:06;;;;;;;8.63;3.25;;;;;;;1.68;46.45;148092.31;1813889;79;21024;-61
2022/03/28 01:09:34;;;;;;;6.35;3.20;;;;;;;1.66;46.63;148087.17;1814776;78;21083;-60
2022/03/28 01:12:04;;;;;;;11.38;3.75;;;;;;;1.64;46.72;148081.97;1814928;79;20975;-60
2022/03/28 01:14:32;;;;;;;10.80;3.58;;;;;;;1.62;46.80;148075.56;1783717;79;21769;-61
2022/03/28 01:19:46;;;;;;;7.28;3.15;;;;;;;1.57;46.86;148063.94;1814834;79;21055;-62
2022/03/28 01:22:13;;;;;;;11.22;3.25;;;;;;;1.56;46.83;148061.37;1814742;77;21268;-60
2022/03/28 01:24:41;;;;;;;13.60;3.50;;;;;;;1.54;46.84;148056.22;1814660;79;20976;-62
2022/03/28 01:27:08;;;;;;;7.12;3.40;;;;;;;1.56;46.72;148061.37;1814132;78;21239;-61
2022/03/28 01:29:36;;;;;;;12.68;3.40;;;;;;;1.57;46.48;148063.94;1807002;78;21009;-60
2022/03/28 01:32:05;;;;;;;9.38;3.10;;;;;;;1.54;46.37;148057.48;1802620;79;21036;-60
2022/03/28 01:34:32;;;;;;;19.02;4.03;;;;;;;1.52;46.31;148051.06;1802691;79;21028;-61
2022/03/28 01:37:00;;;;;;;8.10;3.12;;;;;;;1.46;46.24;148035.62;1802584;79;21055;-62
2022/03/28 01:39:27;;;;;;;13.32;3.30;;;;;;;1.42;46.13;148027.84;1802692;79;21286;-62
2022/03/28 01:41:54;;;;;;;8.65;3.27;;;;;;;1.39;45.89;148020.13;1802654;78;20925;-62
2022/03/28 01:44:21;;;;;;;11.93;3.12;;;;;;;1.37;45.70;148014.97;1802757;78;21079;-62
2022/03/28 01:46:48;;;;;;;7.23;3.20;;;;;;;1.35;45.57;148009.81;1802934;79;20909;-62
2022/03/28 01:49:17;;;;;;;7.10;3.22;;;;;;;1.33;45.49;148004.67;1802027;79;21059;-64
2022/03/28 01:51:47;;;;;;;9.45;3.22;;;;;;;1.34;45.52;148007.25;1802704;79;21816;-62
2022/03/28 01:54:14;;;;;;;11.40;3.45;;;;;;;1.36;45.27;148012.39;1802665;79;21458;-62
2022/03/28 01:56:41;;;;;;;9.83;3.60;;;;;;;1.35;45.11;148009.81;1803247;79;21474;-62
2022/03/28 01:59:09;;;;;;;12.37;3.72;;;;;;;1.32;45.00;148002.09;1803154;79;21425;-62
2022/03/28 02:01:37;;;;;;;8.33;3.75;;;;;;;1.30;44.88;147996.95;1803312;79;21461;-62
2022/03/28 02:04:04;;;;;;;8.95;3.42;;;;;;;1.26;44.79;147986.66;1803482;79;21584;-62
2022/03/28 02:06:34;;;;;;;13.25;3.50;;;;;;;1.23;44.74;147978.94;1803143;79;20956;-63
2022/03/28 02:09:02;;;;;;;10.35;3.80;;;;;;;1.20;44.66;147971.16;1802753;79;21035;-62
2022/03/28 02:11:31;;;;;;;11.55;3.70;;;;;;;1.18;44.62;147966.02;1802914;79;21506;-62
2022/03/28 02:13:58;;;;;;;10.08;3.80;;;;;;;1.13;44.67;147955.72;1802520;78;21715;-62
2022/03/28 02:16:25;;;;;;;8.48;3.70;;;;;;;1.07;44.74;147938.95;1802739;78;21091;-62
2022/03/28 02:18:52;;;;;;;12.95;4.08;;;;;;;1.02;44.74;147927.41;1802715;79;20953;-62
2022/03/28 02:21:19;;;;;;;8.73;3.98;;;;;;;0.95;44.68;147909.33;1802568;79;21040;-62
2022/03/28 02:23:46;;;;;;;10.60;3.60;;;;;;;0.90;44.68;147896.47;1802685;78;21446;-63
2022/03/28 02:26:16;;;;;;;9.63;4.00;;;;;;;0.90;44.67;147896.47;1802282;79;21517;-62
2022/03/28 02:28:44;;;;;;;13.65;4.05;;;;;;;0.91;44.52;147899.03;1804345;79;21396;-62
2022/03/28 02:31:11;;;;;;;8.10;3.25;;;;;;;0.94;44.29;147908.06;1814139;78;20999;-62
2022/03/28 02:33:40;;;;;;;9.08;4.08;;;;;;;0.94;44.17;147908.06;1814679;78;20984;-62
2022/03/28 02:36:08;;;;;;;11.45;3.62;;;;;;;0.93;44.10;147904.19;1814063;77;21012;-62
2022/03/28 02:38:35;;;;;;;11.95;3.80;;;;;;;0.91;44.10;147899.03;1814560;77;21063;-62
2022/03/28 02:41:02;;;;;;;15.13;4.10;;;;;;;0.89;44.08;147893.89;1814147;77;21113;-62
2022/03/28 02:43:29;;;;;;;11.65;4.00;;;;;;;0.84;44.08;147883.59;1814374;79;21156;-63
2022/03/28 02:45:57;;;;;;;8.78;3.58;;;;;;;0.81;44.09;147875.88;1813880;79;21094;-63
2022/03/28 02:48:24;;;;;;;9.93;4.15;;;;;;;0.79;44.13;147870.73;1814577;78;20964;-63
2022/03/28 02:50:52;;;;;;;10.58;4.00;;;;;;;0.78;44.30;147868.16;1815276;78;20869;-63
2022/03/28 02:53:19;;;;;;;16.15;4.80;;;;;;;0.79;44.45;147869.42;1814745;78;21523;-63
2022/03/28 02:55:47;;;;;;;12.68;3.87;;;;;;;0.84;44.54;147882.28;1815287;78;21041;-63
2022/03/28 02:58:15;;;;;;;15.60;4.90;;;;;;;0.88;44.42;147892.58;1814603;77;21044;-62
2022/03/28 03:00:42;;;;;;;12.25;4.65;;;;;;;0.90;44.36;147896.47;1814925;78;20956;-62
2022/03/28 03:03:11;;;;;;;10.58;4.33;;;;;;;0.90;44.38;147897.78;1814479;78;21011;-62
2022/03/28 03:05:39;;;;;;;15.30;4.35;;;;;;;0.90;44.41;147897.78;1814181;79;21180;-62
2022/03/28 03:08:08;;;;;;;12.55;4.17;;;;;;;0.91;44.43;147900.34;1814261;79;21036;-62
2022/03/28 03:10:36;;;;;;;7.90;3.87;;;;;;;0.91;44.29;147900.34;1815049;79;21028;-62
2022/03/28 03:13:03;;;;;;;10.43;4.30;;;;;;;0.93;43.95;147904.19;1814257;79;21043;-62
2022/03/28 03:15:31;;;;;;;12.18;4.58;;;;;;;0.95;43.68;147909.33;1814650;78;21019;-63
2022/03/28 03:17:58;;;;;;;18.17;4.97;;;;;;;0.97;43.62;147914.48;1814406;79;21397;-60
2022/03/28 03:20:26;;;;;;;14.87;4.85;;;;;;;0.98;43.53;147917.06;1814864;79;21007;-60
2022/03/28 03:22:54;;;;;;;13.68;4.75;;;;;;;0.97;43.45;147915.80;1815130;77;20814;-60
2022/03/28 03:25:22;;;;;;;14.75;4.47;;;;;;;0.97;43.40;147914.48;1814825;79;21011;-60
2022/03/28 03:27:51;;;;;;;14.80;4.78;;;;;;;0.96;43.42;147911.91;1814987;79;20905;-60
2022/03/28 03:30:19;;;;;;;12.88;4.47;;;;;;;0.95;43.46;147909.33;1814883;78;21894;-62
2022/03/28 03:32:46;;;;;;;12.58;4.55;;;;;;;0.94;43.46;147906.77;1814788;79;20995;-62
2022/03/28 03:35:13;;;;;;;12.33;4.12;;;;;;;0.92;43.46;147901.63;1814034;79;21016;-62
2022/03/28 03:37:41;;;;;;;13.55;4.62;;;;;;;0.90;43.39;147897.78;1814767;78;20952;-62
2022/03/28 03:40:12;;;;;;;13.05;4.17;;;;;;;0.86;43.29;147887.44;1814214;79;21086;-61
2022/03/28 03:42:39;;;;;;;15.72;4.60;;;;;;;0.78;43.30;147868.16;1815267;78;21374;-61
2022/03/28 03:45:08;;;;;;;19.10;4.45;;;;;;;0.72;43.28;147852.67;1814093;79;21051;-62
2022/03/28 03:47:37;;;;;;;10.03;4.67;;;;;;;0.68;43.27;147842.38;1815013;79;21035;-63
2022/03/28 03:50:05;;;;;;;13.05;4.20;;;;;;;0.64;43.25;147832.08;1812326;79;21028;-63
2022/03/28 03:52:32;;;;;;;11.30;4.25;;;;;;;0.60;43.25;147823.05;1812436;79;21016;-63
2022/03/28 03:54:59;;;;;;;13.15;4.50;;;;;;;0.58;43.26;147816.64;1811884;78;21225;-63
2022/03/28 03:57:26;;;;;;;15.53;4.03;;;;;;;0.58;43.30;147816.64;1811795;78;20964;-63
2022/03/28 03:59:53;;;;;;;12.30;4.25;;;;;;;0.59;43.34;147819.22;1814527;78;21008;-63
2022/03/28 04:02:21;;;;;;;11.87;4.80;;;;;;;0.60;43.42;147821.78;1813968;77;20993;-62
2022/03/28 04:04:48;;;;;;;19.02;5.00;;;;;;;0.62;43.46;147826.94;1814570;78;20996;-62
2022/03/28 04:07:17;;;;;;;13.45;4.53;;;;;;;0.64;43.51;147832.08;1813615;77;21477;-62
2022/03/28 04:09:44;;;;;;;14.40;4.75;;;;;;;0.67;43.58;147841.11;1814456;79;20976;-62
2022/03/28 04:12:12;;;;;;;12.73;4.50;;;;;;;0.74;43.63;147857.81;1814532;79;21023;-63
2022/03/28 04:14:41;;;;;;;13.83;5.42;;;;;;;0.81;43.62;147875.88;1814972;78;20984;-62
2022/03/28 04:17:10;;;;;;;11.78;5.05;;;;;;;0.91;43.60;147899.03;1814442;78;20998;-63
2022/03/28 04:19:37;;;;;;;15.28;5.37;;;;;;;0.98;43.53;147917.06;1814574;77;21809;-62
2022/03/28 04:22:06;;;;;;;14.63;5.57;;;;;;;1.03;43.51;147929.97;1813391;77;21050;-62
2022/03/28 04:24:33;;;;;;;15.15;5.15;;;;;;;1.07;43.47;147938.95;1813595;79;21035;-64
2022/03/28 04:27:01;;;;;;;12.73;5.03;;;;;;;1.12;43.41;147953.14;1814263;78;21075;-64
2022/03/28 04:29:29;;;;;;;16.10;5.17;;;;;;;1.21;43.23;147973.73;1811801;77;21040;-64
2022/03/28 04:31:57;;;;;;;16.20;4.62;;;;;;;1.29;42.92;147994.38;1802652;79;21205;-62
2022/03/28 04:34:25;;;;;;;12.35;4.72;;;;;;;1.33;42.49;148003.41;1802692;79;21059;-63
2022/03/28 04:36:53;;;;;;;10.82;4.95;;;;;;;1.34;42.25;148007.25;1803216;78;20842;-62
2022/03/28 04:39:20;;;;;;;9.85;4.35;;;;;;;1.36;42.16;148012.39;1802614;79;21017;-63
2022/03/28 04:41:47;;;;;;;13.00;4.60;;;;;;;1.41;42.01;148024.00;1803232;79;20966;-62
2022/03/28 04:44:16;;;;;;;14.18;4.50;;;;;;;1.46;41.78;148035.62;1802849;79;21083;-62
2022/03/28 04:46:43;;;;;;;9.68;4.08;;;;;;;1.53;41.54;148053.64;1803044;79;21000;-63
2022/03/28 04:49:13;;;;;;;11.55;4.35;;;;;;;1.61;41.23;148072.98;1802446;79;21055;-63
2022/03/28 04:51:39;;;;;;;14.85;4.85;;;;;;;1.68;41.03;148092.31;1803178;79;21060;-62
2022/03/28 04:54:06;;;;;;;12.40;4.28;;;;;;;1.79;40.98;148118.06;1803434;79;21023;-63
2022/03/28 04:56:34;;;;;;;19.42;4.50;;;;;;;1.90;40.88;148145.14;1803140;79;22114;-64
2022/03/28 04:59:03;;;;;;;13.22;4.15;;;;;;;2.05;40.67;148182.52;1803101;79;20944;-64
2022/03/28 05:01:31;;;;;;;13.65;5.00;;;;;;;2.20;40.40;148219.89;1802886;79;21022;-64
2022/03/28 05:03:58;;;;;;;15.38;4.97;;;;;;;2.36;40.11;148259.91;1803454;78;20964;-64
2022/03/28 05:06:25;;;;;;;20.97;6.87;;;;;;;2.54;39.87;148306.34;1802833;79;21290;-60
2022/03/28 05:08:54;;;;;;;20.92;7.33;;;;;;;2.74;39.67;148355.31;1802580;79;20993;-61
2022/03/28 05:11:22;;;;;;;23.45;7.17;;;;;;;2.95;39.42;148406.91;1802513;79;21079;-60
2022/03/28 05:13:50;;;;;;;17.50;5.20;;;;;;;3.14;39.17;148455.94;1803025;79;20989;-61
2022/03/28 05:16:18;;;;;;;17.30;4.85;;;;;;;3.36;38.95;148508.87;1803089;79;21024;-61
2022/03/28 05:18:45;;;;;;;9.15;4.25;;;;;;;3.66;38.67;148585.03;1803103;78;21028;-60
2022/03/28 05:21:13;;;;;;;15.08;4.50;;;;;;;4.12;38.31;148699.91;1802596;79;21337;-61
2022/03/28 05:23:40;;;;;;;16.70;4.22;;;;;;;4.59;37.65;148817.45;1802795;78;21020;-62
2022/03/28 05:26:07;;;;;;;8.93;4.20;;;;;;;5.05;37.11;148931.16;1802363;79;21067;-61
2022/03/28 05:28:34;;;;;;;11.12;4.47;;;;;;;5.39;36.29;149016.42;1802460;79;21174;-62
2022/03/28 05:31:02;;;;;;;12.78;3.90;;;;;;;5.58;35.86;149062.97;1810681;79;21027;-63
2022/03/28 05:33:29;;;;;;;12.07;4.35;;;;;;;5.73;35.53;149101.77;1814070;79;21261;-63
2022/03/28 05:35:56;;;;;;;15.93;4.10;;;;;;;5.86;35.10;149132.81;1814168;79;21035;-63
2022/03/28 05:38:23;;;;;;;19.23;4.53;;;;;;;5.93;34.72;149149.59;1813830;79;21035;-62
2022/03/28 05:40:51;;;;;;;11.12;3.70;;;;;;;5.97;34.62;149161.25;1814304;79;21004;-62
2022/03/28 05:43:18;;;;;;;10.30;3.58;;;;;;;6.05;34.45;149179.39;1814492;79;21005;-63
2022/03/28 05:45:45;;;;;;;10.43;3.70;;;;;;;6.11;34.30;149196.20;1814676;77;21190;-62
2022/03/28 05:48:13;;;;;;;12.30;4.10;;;;;;;6.23;34.10;149225.95;1814405;77;20889;-63
2022/03/28 05:50:40;;;;;;;9.83;3.95;;;;;;;6.33;33.96;149249.27;1814822;79;21043;-61
2022/03/28 05:53:13;;;;;;;13.32;4.00;;;;;;;6.48;33.83;149288.03;1814410;79;21003;-62
2022/03/28 05:55:37;;;;;;;13.05;4.58;;;;;;;6.61;33.49;149319.11;1814671;77;21238;-61
2022/03/28 05:58:06;;;;;;;11.70;3.43;;;;;;;6.73;33.41;149350.13;1814741;78;21211;-61
2022/03/28 06:00:34;;;;;;;10.05;4.10;;;;;;;6.90;33.15;149391.56;1815008;78;20983;-62
2022/03/28 06:03:01;;;;;;;10.23;4.65;;;;;;;7.04;33.05;149427.81;1814396;79;21004;-62
2022/03/28 06:05:29;;;;;;;11.40;4.22;;;;;;;7.19;32.94;149464.06;1814417;79;21051;-62
2022/03/28 06:07:56;;;;;;;13.72;4.22;;;;;;;7.36;32.75;149506.78;1814627;79;21003;-63
2022/03/28 06:10:24;;;;;;;11.83;3.98;;;;;;;7.56;32.56;149557.25;1814539;79;21229;-61
2022/03/28 06:12:52;;;;;;;13.28;3.87;;;;;;;7.78;32.30;149612.95;1815014;77;20853;-60
2022/03/28 06:15:20;;;;;;;10.63;3.65;;;;;;;8.00;32.01;149668.61;1814791;77;21055;-62
2022/03/28 06:17:50;;;;;;;9.50;3.42;;;;;;;8.20;31.62;149717.84;1814917;78;21480;-61
2022/03/28 06:20:18;;;;;;;11.78;4.25;;;;;;;8.38;31.32;149763.16;1814997;79;20893;-61
2022/03/28 06:22:45;;;;;;;8.18;3.98;;;;;;;8.52;31.00;149798.23;1815040;78;21219;-61
2022/03/28 06:25:12;;;;;;;12.47;3.60;;;;;;;8.63;30.88;149825.45;1814387;79;21071;-61
2022/03/28 06:27:43;;;;;;;14.43;3.60;;;;;;;8.73;30.79;149850.03;1814980;79;21063;-60
2022/03/28 06:30:11;;;;;;;6.95;3.17;;;;;;;8.85;30.65;149879.88;1814427;79;21020;-61
2022/03/28 06:32:40;;;;;;;8.35;3.02;;;;;;;9.02;30.35;149922.64;1815210;79;21051;-62
2022/03/28 06:35:08;;;;;;;12.47;3.67;;;;;;;9.22;30.11;149971.91;1814940;79;21223;-61
2022/03/28 06:37:36;;;;;;;13.58;3.85;;;;;;;9.45;29.91;150031.53;1814819;79;20928;-64
2022/03/28 06:40:05;;;;;;;7.53;3.30;;;;;;;9.83;29.88;150124.87;1814981;79;21457;-62
2022/03/28 06:42:32;;;;;;;9.03;2.90;;;;;;;10.30;29.52;150242.94;1814924;79;21261;-63
2022/03/28 06:45:00;;;;;;;8.40;3.10;;;;;;;10.81;28.97;150370.14;1814457;78;21024;-62
2022/03/28 06:47:27;;;;;;;6.28;2.47;;;;;;;11.35;28.31;150505.17;1814612;77;22979;-63
2022/03/28 06:49:54;;;;;;;7.67;2.65;;;;;;;11.98;28.02;150663.63;1814610;79;20920;-63
2022/03/28 06:52:21;;;;;;;11.00;2.60;;;;;;;12.83;27.16;150878.06;1814645;79;20999;-63
2022/03/28 06:54:49;;;;;;;7.60;2.15;;;;;;;13.26;26.20;150984.66;1814564;79;20980;-62
2022/03/28 06:57:16;;;;;;;11.63;2.42;;;;;;;13.41;25.63;151023.69;1814160;77;21035;-63
2022/03/28 06:59:44;;;;;;;6.17;2.20;;;;;;;13.54;25.50;151056.23;1814828;79;21265;-63
2022/03/28 07:02:11;;;;;;;6.12;2.00;;;;;;;13.76;25.30;151110.86;1814430;78;21054;-62
2022/03/28 07:04:38;;;;;;;8.15;2.62;;;;;;;13.96;24.82;151160.28;1783307;79;20995;-62
2022/03/28 07:07:08;;;;;;;6.00;2.05;;;;;;;13.88;24.36;151142.05;1814435;78;21879;-61
2022/03/28 07:09:35;;;;;;;4.30;1.87;;;;;;;13.66;24.28;151086.14;1814673;78;21075;-62
2022/03/28 07:12:05;;;;;;;6.45;2.05;;;;;;;13.42;24.39;151024.95;1814653;79;21872;-62
2022/03/28 07:14:33;;;;;;;8.40;2.85;;;;;;;13.20;24.68;150970.34;1814867;79;21039;-60
2022/03/28 07:17:00;;;;;;;8.10;2.60;;;;;;;13.08;24.95;150939.17;1814888;78;21429;-62
2022/03/28 07:19:27;;;;;;;8.00;2.00;;;;;;;13.00;25.16;150920.94;1814599;78;21102;-61
2022/03/28 07:21:55;;;;;;;7.83;2.35;;;;;;;12.89;25.13;150892.37;1814956;79;21023;-62
2022/03/28 07:24:22;;;;;;;9.78;2.20;;;;;;;12.74;25.04;150854.67;1814663;77;21197;-62
2022/03/28 07:26:49;;;;;;;5.67;1.82;;;;;;;12.55;25.13;150807.89;1814562;79;21576;-63
2022/03/28 07:29:17;;;;;;;5.03;2.10;;;;;;;12.37;25.00;150761.09;1814434;79;21114;-62
2022/03/28 07:31:48;;;;;;;6.42;1.85;;;;;;;12.17;24.94;150713.03;1806238;77;20973;-62
2022/03/28 07:34:30;;;;;;;9.10;1.95;;;;;;;12.02;24.84;150675.33;1802929;79;21055;-62
2022/03/28 07:36:59;;;;;;;6.67;1.90;;;;;;;11.99;24.84;150666.22;1802630;78;21228;-63
2022/03/28 07:39:26;;;;;;;5.67;2.20;;;;;;;11.94;24.89;150653.25;1802661;79;21632;-63
2022/03/28 07:41:54;;;;;;;7.40;2.08;;;;;;;11.93;24.99;150651.92;1803002;79;20992;-63
2022/03/28 07:44:21;;;;;;;4.15;2.02;;;;;;;11.94;25.05;150653.25;1802665;79;20984;-61
2022/03/28 07:46:48;;;;;;;6.87;2.30;;;;;;;11.95;25.14;150657.11;1802911;78;21060;-61
2022/03/28 07:49:19;;;;;;;9.18;2.00;;;;;;;11.98;24.93;150664.89;1802191;79;21217;-61
2022/03/28 07:51:47;;;;;;;8.03;2.50;;;;;;;11.93;24.83;150650.59;1803157;79;21052;-62
2022/03/28 07:54:14;;;;;;;5.67;1.60;;;;;;;11.88;24.76;150638.94;1802524;79;21084;-61
2022/03/28 07:56:41;;;;;;;4.37;1.62;;;;;;;11.89;24.75;150641.53;1803183;79;21017;-62
2022/03/28 07:59:09;;;;;;;4.42;1.90;;;;;;;11.88;24.52;150638.94;1808044;79;21016;-62
2022/03/28 08:01:37;;;;;;;5.30;1.92;;;;;;;11.87;24.58;150636.34;1811344;79;21776;-61
2022/03/28 08:04:43;;;;;;;3.20;1.70;;;;;;;11.91;24.56;150646.73;1810989;79;21036;-63
2022/03/28 08:07:11;;;;;;;4.75;1.80;;;;;;;11.93;24.70;150651.92;1811551;79;21015;-62
2022/03/28 08:09:38;;;;;;;4.72;1.90;;;;;;;11.99;24.62;150666.22;1811266;79;21041;-63
2022/03/28 08:12:07;;;;;;;5.33;2.27;;;;;;;12.06;24.52;150683.16;1810952;79;21042;-63
2022/03/28 08:14:35;;;;;;;5.05;2.35;;;;;;;12.11;24.46;150696.14;1804661;78;21724;-62
2022/03/28 08:17:03;;;;;;;8.60;2.50;;;;;;;12.09;24.56;150690.95;1767387;78;21137;-62
2022/03/28 08:19:32;;;;;;;4.70;2.30;;;;;;;12.11;24.72;150696.14;1746985;78;20927;-62
2022/03/28 08:22:00;;;;;;;12.63;2.70;;;;;;;12.13;24.75;150701.34;1817818;78;21034;-61
2022/03/28 08:24:27;;;;;;;7.78;2.30;;;;;;;12.16;24.55;150709.13;1818910;78;21138;-62
2022/03/28 08:26:56;;;;;;;9.70;2.55;;;;;;;12.14;24.66;150705.20;1819649;78;20914;-62
2022/03/28 08:29:23;;;;;;;5.03;2.10;;;;;;;12.17;24.74;150711.72;1782886;78;20909;-63
2022/03/28 08:31:51;;;;;;;5.95;2.27;;;;;;;12.23;24.70;150727.30;1819764;78;20980;-63
2022/03/28 08:34:19;;;;;;;10.65;1.90;;;;;;;12.25;24.61;150731.22;1819616;78;21051;-62
2022/03/28 08:36:47;;;;;;;4.25;2.30;;;;;;;12.26;24.57;150733.81;1820095;78;20985;-62
2022/03/28 08:39:14;;;;;;;5.97;2.65;;;;;;;12.26;24.34;150735.09;1819280;78;21048;-62
2022/03/28 08:41:42;;;;;;;12.00;2.92;;;;;;;12.24;24.12;150729.89;1820151;78;21079;-63
2022/03/28 08:44:09;;;;;;;7.17;2.22;;;;;;;12.22;24.05;150724.70;1819585;78;21008;-63
2022/03/28 08:46:37;;;;;;;6.10;1.87;;;;;;;12.20;23.97;150718.23;1820186;78;21056;-64
2022/03/28 08:49:04;;;;;;;6.10;2.10;;;;;;;12.20;24.01;150719.50;1713754;78;21349;-62
2022/03/28 08:51:32;;;;;;;13.13;4.65;;;;;;;12.23;23.97;150727.30;1820211;78;21837;-63
2022/03/28 08:53:59;;;;;;;10.28;3.70;;;;;;;12.27;24.00;150736.41;1820210;78;21032;-63
2022/03/28 08:56:27;;;;;;;8.95;2.50;;;;;;;12.33;23.88;150751.98;1820035;78;21103;-60
2022/03/28 08:58:55;;;;;;;5.85;2.62;;;;;;;12.36;23.88;150759.78;1820363;78;20976;-61
2022/03/28 09:01:23;;;;;;;4.10;2.12;;;;;;;12.43;23.85;150776.67;1819977;78;21299;-62
2022/03/28 09:03:50;;;;;;;6.37;2.90;;;;;;;12.46;23.58;150784.47;1788826;78;21253;-62
2022/03/28 09:06:37;;;;;;;5.10;1.90;;;;;;;12.49;23.58;150792.31;1819665;78;21024;-61
2022/03/28 09:09:27;;;;;;;7.53;2.65;;;;;;;12.51;23.53;150797.50;1788087;78;21091;-61
2022/03/28 09:11:57;;;;;;;5.65;2.80;;;;;;;12.51;23.54;150796.17;1819719;78;21493;-61
2022/03/28 09:14:29;;;;;;;8.15;2.62;;;;;;;12.55;23.71;150807.89;1817276;78;21016;-61
2022/03/28 09:17:13;;;;;;;3.95;2.15;;;;;;;12.64;23.75;150828.66;1819688;78;22295;-60
2022/03/28 09:19:54;;;;;;;;;;;;;;;12.69;23.57;150841.64;1790997;78;21457;-62
2022/03/28 09:22:30;;;;;;;6.58;2.30;;;;;;;12.74;23.28;150854.67;1819813;78;20241;-61
2022/03/28 09:25:01;;;;;;;7.53;3.22;;;;;;;12.77;24.16;150862.47;1787441;78;21080;-61
2022/03/28 09:27:31;;;;;;;9.58;3.05;;;;;;;12.77;28.29;150861.16;1819414;78;22013;-60
2022/03/28 09:30:16;;;;;;;5.25;2.75;;;;;;;12.66;30.09;150833.84;1788067;78;21095;-61
2022/03/28 09:32:48;;;;;;;6.60;2.92;;;;;;;12.49;30.66;150792.31;1819452;78;21031;-62
2022/03/28 09:35:26;;;;;;;10.85;3.55;;;;;;;12.32;31.97;150750.72;1818734;78;21576;-62
2022/03/28 09:38:08;;;;;;;6.50;2.85;;;;;;;12.19;32.71;150716.91;1819097;78;21087;-62
2022/03/28 09:40:38;;;;;;;11.80;4.00;;;;;;;12.00;32.90;150670.09;1819213;78;21079;-63
2022/03/28 09:43:24;;;;;;;12.28;3.33;;;;;;;11.81;32.70;150620.72;1819540;78;21870;-60
2022/03/28 09:45:55;;;;;;;7.72;2.80;;;;;;;11.63;33.10;150575.28;1819623;78;20869;-61
2022/03/28 09:48:25;;;;;;;7.58;3.33;;;;;;;11.45;33.92;150531.12;1783865;78;21047;-61
2022/03/28 09:51:01;;;;;;;8.40;3.08;;;;;;;11.30;34.22;150493.47;1819918;78;20917;-61
2022/03/28 09:53:32;;;;;;;12.00;3.15;;;;;;;11.16;35.01;150458.44;1783619;78;20961;-61
2022/03/28 09:56:10;;;;;;;7.12;2.98;;;;;;;11.04;36.07;150428.58;1819653;78;21084;-60
2022/03/28 09:58:49;;;;;;;7.87;3.10;;;;;;;10.97;36.48;150410.42;1818951;78;21020;-63
2022/03/28 10:01:22;;;;;;;7.67;3.30;;;;;;;10.84;37.09;150379.23;1819237;78;21036;-62
2022/03/28 10:03:55;;;;;;;10.03;3.92;;;;;;;10.70;37.22;150342.88;1819049;78;22274;-60
2022/03/28 10:06:23;;;;;;;11.22;3.60;;;;;;;10.63;38.09;150324.73;1783767;78;21024;-60
2022/03/28 10:08:50;;;;;;;8.30;2.77;;;;;;;10.54;39.13;150303.98;1819258;78;21179;-60
2022/03/28 10:11:17;;;;;;;11.15;3.40;;;;;;;10.46;39.65;150283.19;1819040;78;20925;-61
2022/03/28 10:13:45;;;;;;;7.42;2.72;;;;;;;10.39;40.10;150265.00;1819526;78;21430;-63
2022/03/28 10:16:13;;;;;;;9.38;3.20;;;;;;;10.32;40.77;150249.44;1819486;78;21726;-63
2022/03/28 10:18:44;;;;;;;8.23;3.47;;;;;;;10.26;41.17;150232.56;1819687;78;21086;-62
2022/03/28 10:21:22;;;;;;;7.53;2.85;;;;;;;10.20;41.52;150218.28;1819286;78;22092;-62
2022/03/28 10:24:12;;;;;;;5.65;2.72;;;;;;;10.15;42.29;150205.31;1819651;78;20909;-62
2022/03/28 10:26:44;;;;;;;6.30;2.58;;;;;;;10.06;42.00;150181.94;1783722;78;21023;-62
2022/03/28 10:29:15;;;;;;;7.87;2.80;;;;;;;9.97;42.32;150161.20;1819639;78;20933;-64
2022/03/28 10:31:59;;;;;;;8.60;2.67;;;;;;;9.91;42.57;150144.34;1819629;78;20953;-63
2022/03/28 10:35:01;;;;;;;5.40;2.80;;;;;;;9.85;42.68;150130.11;1788146;78;21346;-63
2022/03/28 10:37:46;;;;;;;8.08;3.00;;;;;;;9.79;42.75;150114.50;1819586;78;21842;-63
2022/03/28 10:40:29;;;;;;;8.70;2.35;;;;;;;9.73;42.48;150101.55;1787439;78;21040;-62
2022/03/28 10:43:14;;;;;;;9.03;2.42;;;;;;;9.68;42.41;150088.59;1819824;78;21044;-63
2022/03/28 10:45:54;;;;;;;8.23;2.47;;;;;;;9.67;42.39;150086.00;1820515;78;21020;-63
2022/03/28 10:48:49;;;;;;;9.58;2.77;;;;;;;9.67;42.40;150086.00;1818762;78;21191;-63
2022/03/28 10:51:24;;;;;;;8.58;1.75;;;;;;;9.67;42.24;150086.00;1788021;78;21044;-63
2022/03/28 10:53:59;;;;;;;5.78;2.60;;;;;;;9.65;42.00;150079.50;1765172;79;21384;-64
2022/03/28 10:56:38;;;;;;;5.58;2.52;;;;;;;9.64;42.51;150078.22;1781215;80;20968;-63
2022/03/28 10:59:10;;;;;;;8.88;2.50;;;;;;;9.60;43.13;150067.81;1789260;78;20927;-62
2022/03/28 11:01:49;;;;;;;7.65;2.60;;;;;;;9.55;43.58;150054.86;1795320;79;21180;-63
2022/03/28 11:04:23;;;;;;;7.62;2.60;;;;;;;9.51;43.61;150044.48;1764329;79;21044;-63
2022/03/28 11:07:02;;;;;;;5.90;2.30;;;;;;;9.42;43.86;150023.77;1800732;78;20947;-62
2022/03/28 11:09:49;;;;;;;5.75;2.60;;;;;;;9.29;44.56;149990.03;1817621;78;21006;-62
2022/03/28 11:12:37;;;;;;;10.03;2.92;;;;;;;9.22;44.77;149971.91;1818234;77;21027;-63
2022/03/28 11:15:21;;;;;;;10.15;2.72;;;;;;;9.15;44.96;149955.03;1817508;78;21147;-61
2022/03/28 11:18:00;;;;;;;8.30;2.98;;;;;;;9.09;44.97;149939.50;1818372;78;21055;-60
2022/03/28 11:20:44;;;;;;;7.47;2.60;;;;;;;9.05;45.09;149929.09;1721423;82;21067;-59
2022/03/28 11:23:13;;;;;;;8.30;2.60;;;;;;;9.03;44.75;149925.23;1763471;79;20956;-61
2022/03/28 11:25:48;;;;;;;6.15;2.50;;;;;;;9.00;44.52;149918.73;1738632;82;21574;-60
2022/03/28 11:28:26;;;;;;;7.05;2.90;;;;;;;9.00;44.33;149917.47;1734142;82;22939;-61
2022/03/28 11:31:07;;;;;;;6.83;2.47;;;;;;;9.00;44.18;149918.73;1747375;82;20942;-62
2022/03/28 11:33:42;;;;;;;5.55;2.30;;;;;;;9.00;44.16;149917.47;1782489;80;21040;-62
2022/03/28 11:36:13;;;;;;;9.23;2.75;;;;;;;9.00;44.14;149917.47;1716140;82;21155;-60
2022/03/28 11:38:46;;;;;;;6.17;2.70;;;;;;;8.96;44.29;149907.09;1814321;79;21011;-60
2022/03/28 11:41:15;;;;;;;6.08;2.40;;;;;;;8.94;45.21;149903.19;1804166;78;21246;-62